Terminal Aerodrome Forecast
Issued by NWS

Home | Current Version | Previous Version | Graphics & Text | Print | Product List | Glossary On
Versions: 1 2 3 4 5 6 7 8 9 10 11 12 13 14 15 16 17 18 19 20 21 22 23 24 25 26 27
000
FTUS43 KLOT 201125
TAFGYY
TAF
KGYY 201125Z 2012/2112 08012KT P6SM VCSH OVC009
     FM201400 08012G18KT 4SM RA VCTS OVC007CB
     FM201900 14012G18KT P6SM VCSH SCT015 OVC025 PROB30 2021/2024
      3SM TSRA OVC025CB
     FM210000 17008KT P6SM SCT025 BKN100=

USA.gov is the U.S. government's official web portal to all federal, state and local government web resources and services.